Date,TemperatureHighF,TemperatureAvgF,TemperatureLowF,DewpointHighF,DewpointAvgF,DewpointLowF,HumidityHigh,HumidityAvg,HumidityLow,PressureMaxIn,PressureMinIn,WindSpeedMaxMPH,WindSpeedAvgMPH,GustSpeedMaxMPH,PrecipitationSumIn
2014-1-1,5.0,-6.5,-22.9,-2.3,-13.3,-28.8,90,72,54,30.22,29.80,9,3,10,0.00
2014-1-2,-9.4,-15.6,-22.4,-15.4,-24.5,-28.8,77,63,53,30.22,29.84,18,9,19,0.00
2014-1-3,5.9,-8.5,-19.7,-12.1,-18.3,-28.2,75,62,39,30.09,29.81,16,5,17,0.00
2014-1-4,7.3,3.4,-21.8,-1.2,-4.1,-28.4,80,70,67,30.05,29.70,6,2,7,0.00
2014-1-5,29.8,14.8,5.4,29.6,10.4,-2.5,99,82,69,29.93,29.41,17,3,17,0.01
2014-1-6,43.9,29.2,12.4,43.1,26.1,6.6,99,88,74,29.41,28.88,30,8,30,0.30
2014-1-7,12.4,3.7,0.3,9.2,-2.8,-7.3,91,74,56,29.71,29.21,24,10,24,0.00
2014-1-8,15.6,10.3,2.7,7.2,2.5,-4.0,75,70,64,30.06,29.71,20,7,24,0.00
2014-1-9,20.8,10.5,-3.8,9.9,3.9,-7.1,87,74,58,30.33,30.04,14,5,15,0.00
2014-1-10,19.0,10.4,-6.2,16.6,7.2,-9.3,90,86,81,30.21,29.84,6,2,7,0.00
2014-1-11,45.1,30.1,19.0,44.9,29.5,16.6,99,97,90,29.84,28.78,18,4,18,0.07
2014-1-12,43.2,37.0,34.7,42.5,33.8,27.3,98,88,73,29.61,28.84,24,12,30,0.01
2014-1-13,43.9,36.2,28.2,35.7,30.9,26.4,99,82,60,29.64,29.36,10,3,10,0.05
2014-1-14,42.8,37.7,30.9,42.3,37.3,29.4,99,98,93,29.49,29.33,8,2,8,0.21
2014-1-15,36.0,29.5,18.7,35.5,26.8,18.5,99,90,71,29.65,29.49,12,4,13,0.00
2014-1-16,37.6,27.4,18.5,25.7,21.0,14.4,95,78,50,29.72,29.62,6,2,9,0.00
2014-1-17,34.7,26.9,19.0,31.6,25.0,17.6,99,93,82,29.65,29.53,11,2,14,0.00
2014-1-18,48.9,26.4,9.0,33.8,23.1,8.1,99,88,51,29.55,29.41,9,2,11,0.01
2014-1-19,28.4,25.3,21.2,27.8,23.7,14.3,99,94,74,29.41,29.00,22,10,22,0.00
2014-1-20,21.2,7.4,-6.0,14.4,-2.4,-14.2,76,63,51,29.75,29.12,13,4,13,0.00
2014-1-21,8.2,-8.9,-19.3,-10.6,-17.1,-23.8,78,67,39,29.91,29.75,6,2,6,0.00
2014-1-22,3.2,-8.0,-23.6,-7.4,-16.5,-28.2,81,66,53,29.89,29.78,3,1,3,0.00
2014-1-23,1.9,0.4,-6.0,-10.0,-10.4,-12.6,72,59,56,29.98,29.78,11,2,12,0.00
2014-1-24,12.9,-1.5,-12.1,3.5,-9.2,-17.4,82,69,42,30.05,29.43,11,4,12,0.00
2014-1-25,22.5,18.0,9.0,20.3,13.4,3.3,99,83,55,29.43,28.96,20,9,23,0.00
2014-1-26,8.8,-0.9,-8.5,3.7,-8.6,-15.6,88,70,48,29.51,29.09,17,7,21,0.00
2014-1-27,19.6,7.1,-6.7,18.2,3.4,-12.2,95,84,63,29.73,29.05,21,9,22,0.33
2014-1-28,15.3,4.5,-7.6,6.2,-3.5,-13.8,85,69,50,29.95,29.74,21,9,21,0.00
2014-1-29,13.8,10.6,5.4,5.1,2.7,-2.2,81,70,65,29.86,29.70,15,8,17,0.00
2014-1-30,32.9,17.2,1.4,15.4,8.1,-3.8,85,68,47,30.03,29.61,11,4,11,0.00
2014-1-31,36.1,27.5,15.6,25.9,19.7,8.6,79,72,61,29.90,29.55,14,7,19,0.00